Time,TemperatureF,DewpointF,PressureIn,WindDirection,WindDirectionDegrees,WindSpeedMPH,WindSpeedGustMPH,Humidity,HourlyPrecipIn,Conditions,Clouds,dailyrainin,SoftwareType,DateUTC
2013-11-18 00:01:00,52.5,47.5,29.85,SSE,161,1.0,1.0,83,0.00,,,0.00,VWS V14.01,2013-11-18 05:01:00,
2013-11-18 00:02:00,52.6,47.6,29.85,SSE,160,1.0,1.0,83,0.00,,,0.00,VWS V14.01,2013-11-18 05:02:00,
2013-11-18 00:03:00,52.5,47.5,29.85,ESE,108,1.0,1.0,83,0.00,,,0.00,VWS V14.01,2013-11-18 05:03:00,
2013-11-18 00:04:00,52.6,47.6,29.84,South,180,2.0,2.0,83,0.00,,,0.00,VWS V14.01,2013-11-18 05:04:00,
2013-11-18 00:09:00,52.6,47.9,29.84,ESE,103,0.0,0.0,84,0.00,,,0.00,VWS V14.01,2013-11-18 05:09:00,
2013-11-18 00:14:00,52.6,47.9,29.83,South,177,1.0,1.0,84,0.00,,,0.00,VWS V14.01,2013-11-18 05:14:00,
2013-11-18 00:19:00,52.5,47.8,29.83,ESE,102,2.0,2.0,84,0.00,,,0.00,VWS V14.01,2013-11-18 05:19:00,
2013-11-18 00:24:00,52.5,47.8,29.82,SE,144,3.0,3.0,84,0.00,,,0.00,VWS V14.01,2013-11-18 05:24:00,
2013-11-18 00:29:00,52.6,47.9,29.82,SE,124,1.0,1.0,84,0.00,,,0.00,VWS V14.01,2013-11-18 05:29:00,
2013-11-18 00:34:00,52.6,47.9,29.81,ENE,57,4.0,4.0,84,0.00,,,0.00,VWS V14.01,2013-11-18 05:34:00,
2013-11-18 00:39:00,52.6,47.9,29.81,South,188,5.0,5.0,84,0.00,,,0.00,VWS V14.01,2013-11-18 05:39:00,
2013-11-18 00:44:00,52.6,47.9,29.81,SSE,165,0.0,3.0,84,0.00,,,0.00,VWS V14.01,2013-11-18 05:44:00,
2013-11-18 00:49:00,52.6,47.9,29.80,SSW,195,1.0,3.0,84,0.00,,,0.00,VWS V14.01,2013-11-18 05:49:00,
2013-11-18 00:54:00,52.6,47.9,29.80,WSW,243,2.0,2.0,84,0.00,,,0.00,VWS V14.01,2013-11-18 05:54:00,
2013-11-18 00:59:00,52.6,47.9,29.80,SE,141,0.0,0.0,84,0.00,,,0.00,VWS V14.01,2013-11-18 05:59:00,
2013-11-18 01:04:00,52.6,47.9,29.79,SE,134,1.0,2.0,84,0.00,,,0.00,VWS V14.01,2013-11-18 06:04:00,
2013-11-18 01:09:00,52.6,47.9,29.79,SSE,157,1.0,3.0,84,0.00,,,0.00,VWS V14.01,2013-11-18 06:09:00,
2013-11-18 01:14:00,52.5,47.8,29.78,SE,141,0.0,1.0,84,0.00,,,0.00,VWS V14.01,2013-11-18 06:14:00,
2013-11-18 01:19:00,52.5,47.8,29.78,SE,143,1.0,3.0,84,0.00,,,0.00,VWS V14.01,2013-11-18 06:19:00,
2013-11-18 01:24:00,52.6,47.9,29.78,South,170,1.0,2.0,84,0.00,,,0.00,VWS V14.01,2013-11-18 06:24:00,
2013-11-18 01:29:00,52.6,47.9,29.78,SE,129,2.0,2.0,84,0.00,,,0.00,VWS V14.01,2013-11-18 06:29:00,
2013-11-18 01:34:00,52.7,48.0,29.78,SSE,148,0.0,1.0,84,0.00,,,0.00,VWS V14.01,2013-11-18 06:34:00,
2013-11-18 01:39:00,52.7,48.0,29.77,WNW,294,1.0,4.0,84,0.00,,,0.00,VWS V14.01,2013-11-18 06:39:00,
2013-11-18 01:44:00,52.8,48.1,29.77,South,181,3.0,3.0,84,0.00,,,0.00,VWS V14.01,2013-11-18 06:44:00,
2013-11-18 01:49:00,52.8,48.1,29.76,SW,236,3.0,3.0,84,0.00,,,0.00,VWS V14.01,2013-11-18 06:49:00,
2013-11-18 01:54:00,52.9,48.2,29.76,SW,228,1.0,2.0,84,0.00,,,0.00,VWS V14.01,2013-11-18 06:54:00,
2013-11-18 01:59:00,52.9,48.2,29.75,SE,127,2.0,2.0,84,0.01,,,0.01,VWS V14.01,2013-11-18 06:59:00,
2013-11-18 02:05:00,53.0,48.3,29.75,ESE,123,2.0,2.0,84,0.01,,,0.01,VWS V14.01,2013-11-18 07:05:00,
2013-11-18 02:10:00,53.0,48.3,29.75,SE,134,1.0,2.0,84,0.01,,,0.01,VWS V14.01,2013-11-18 07:10:00,
2013-11-18 02:15:00,53.0,48.3,29.75,SSE,159,1.0,1.0,84,0.01,,,0.01,VWS V14.01,2013-11-18 07:15:00,
2013-11-18 02:20:00,53.0,48.3,29.74,South,179,2.0,3.0,84,0.01,,,0.01,VWS V14.01,2013-11-18 07:20:00,
2013-11-18 02:25:00,53.0,48.3,29.73,South,176,1.0,2.0,84,0.01,,,0.01,VWS V14.01,2013-11-18 07:25:00,
2013-11-18 02:30:00,53.0,48.3,29.73,ESE,120,2.0,2.0,84,0.01,,,0.01,VWS V14.01,2013-11-18 07:30:00,
2013-11-18 02:35:00,52.9,48.2,29.72,SSE,160,2.0,2.0,84,0.01,,,0.01,VWS V14.01,2013-11-18 07:35:00,
2013-11-18 02:40:00,52.9,48.2,29.72,SE,141,0.0,0.0,84,0.01,,-RA,0.01,VWS V14.01,2013-11-18 07:40:00,
2013-11-18 02:45:00,52.9,48.2,29.72,East,97,0.0,2.0,84,0.01,,-RA,0.01,VWS V14.01,2013-11-18 07:45:00,
2013-11-18 02:50:00,52.9,48.2,29.71,SW,218,0.0,1.0,84,0.01,,-RA,0.01,VWS V14.01,2013-11-18 07:50:00,
2013-11-18 02:55:00,53.0,48.3,29.70,SE,143,1.0,2.0,84,0.01,,-RA,0.01,VWS V14.01,2013-11-18 07:55:00,
2013-11-18 03:00:00,53.0,48.3,29.70,SSE,148,0.0,1.0,84,0.00,,-RA,0.01,VWS V14.01,2013-11-18 08:00:00,
2013-11-18 03:05:00,53.0,48.3,29.70,ESE,120,2.0,4.0,84,0.00,,-RA,0.01,VWS V14.01,2013-11-18 08:05:00,
2013-11-18 03:10:00,53.0,48.3,29.69,East,89,2.0,5.0,84,0.00,,-RA,0.01,VWS V14.01,2013-11-18 08:10:00,
2013-11-18 03:15:00,52.9,48.2,29.68,South,184,2.0,2.0,84,0.00,,-RA,0.01,VWS V14.01,2013-11-18 08:15:00,
2013-11-18 03:20:00,52.9,48.2,29.67,SSE,155,0.0,3.0,84,0.00,,-RA,0.01,VWS V14.01,2013-11-18 08:20:00,
2013-11-18 03:25:00,52.9,48.2,29.67,SSE,160,1.0,2.0,84,0.00,,-RA,0.01,VWS V14.01,2013-11-18 08:25:00,
2013-11-18 03:30:00,52.9,48.2,29.67,SSE,150,0.0,2.0,84,0.00,,-RA,0.01,VWS V14.01,2013-11-18 08:30:00,
2013-11-18 03:35:00,52.9,48.2,29.67,SW,217,1.0,2.0,84,0.00,,-RA,0.01,VWS V14.01,2013-11-18 08:35:00,
2013-11-18 03:40:00,53.1,48.4,29.67,SSW,193,1.0,2.0,84,0.00,,-RA,0.01,VWS V14.01,2013-11-18 08:40:00,
2013-11-18 03:45:00,53.1,48.4,29.67,WSW,240,2.0,3.0,84,0.00,,-RA,0.01,VWS V14.01,2013-11-18 08:45:00,
2013-11-18 03:50:00,53.3,48.6,29.66,SSE,150,2.0,3.0,84,0.00,,-RA,0.01,VWS V14.01,2013-11-18 08:50:00,
2013-11-18 03:55:00,53.5,49.1,29.65,SSE,159,2.0,3.0,85,0.00,,-RA,0.01,VWS V14.01,2013-11-18 08:55:00,
2013-11-18 04:00:00,53.8,49.4,29.65,SSE,158,1.0,3.0,85,0.00,,-RA,0.01,VWS V14.01,2013-11-18 09:00:00,
2013-11-18 04:05:00,54.1,49.7,29.64,SW,222,1.0,2.0,85,0.00,,-RA,0.01,VWS V14.01,2013-11-18 09:05:00,
2013-11-18 04:10:00,54.3,49.9,29.64,SW,224,2.0,2.0,85,0.00,,-RA,0.01,VWS V14.01,2013-11-18 09:10:00,
2013-11-18 04:15:00,54.5,50.1,29.63,SSE,162,1.0,2.0,85,0.00,,-RA,0.01,VWS V14.01,2013-11-18 09:15:00,
2013-11-18 04:20:00,54.8,50.4,29.62,SW,218,1.0,1.0,85,0.00,,-RA,0.01,VWS V14.01,2013-11-18 09:20:00,
2013-11-18 04:25:00,55.1,50.7,29.62,East,81,2.0,2.0,85,0.00,,-RA,0.01,VWS V14.01,2013-11-18 09:25:00,
2013-11-18 04:30:00,55.3,50.9,29.62,SSW,207,1.0,1.0,85,0.00,,-RA,0.01,VWS V14.01,2013-11-18 09:30:00,
2013-11-18 04:35:00,55.3,51.2,29.62,SSW,198,1.0,2.0,86,0.00,,,0.01,VWS V14.01,2013-11-18 09:35:00,
2013-11-18 04:40:00,55.4,51.3,29.61,South,188,0.0,1.0,86,0.00,,,0.01,VWS V14.01,2013-11-18 09:40:00,
2013-11-18 04:46:00,55.5,51.4,29.60,SSE,148,2.0,4.0,86,0.00,,,0.01,VWS V14.01,2013-11-18 09:46:00,
2013-11-18 04:51:00,55.6,51.5,29.59,SW,217,1.0,3.0,86,0.00,,,0.01,VWS V14.01,2013-11-18 09:51:00,
2013-11-18 04:56:00,55.8,51.7,29.59,ESE,117,3.0,3.0,86,0.00,,,0.01,VWS V14.01,2013-11-18 09:56:00,
2013-11-18 05:01:00,55.8,51.7,29.58,WSW,246,0.0,2.0,86,0.00,,,0.01,VWS V14.01,2013-11-18 10:01:00,
2013-11-18 05:06:00,56.0,51.9,29.57,SSW,197,2.0,2.0,86,0.00,,,0.01,VWS V14.01,2013-11-18 10:06:00,
2013-11-18 05:11:00,56.0,51.9,29.57,ESE,105,2.0,4.0,86,0.00,,,0.01,VWS V14.01,2013-11-18 10:11:00,
2013-11-18 05:16:00,56.0,51.9,29.56,SSW,210,1.0,3.0,86,0.00,,,0.01,VWS V14.01,2013-11-18 10:16:00,
2013-11-18 05:21:00,56.1,52.0,29.56,WSW,240,2.0,2.0,86,0.00,,,0.01,VWS V14.01,2013-11-18 10:21:00,
2013-11-18 05:26:00,56.1,52.0,29.55,South,181,1.0,4.0,86,0.00,,,0.01,VWS V14.01,2013-11-18 10:26:00,
2013-11-18 05:31:00,56.2,52.1,29.55,SW,224,4.0,6.0,86,0.00,,,0.01,VWS V14.01,2013-11-18 10:31:00,
2013-11-18 05:36:00,56.3,52.2,29.55,South,183,3.0,3.0,86,0.00,,,0.01,VWS V14.01,2013-11-18 10:36:00,
2013-11-18 05:41:00,56.5,52.4,29.55,West,266,1.0,8.0,86,0.00,,,0.01,VWS V14.01,2013-11-18 10:41:00,
2013-11-18 05:46:00,56.7,52.6,29.54,WSW,243,3.0,5.0,86,0.00,,,0.01,VWS V14.01,2013-11-18 10:46:00,
2013-11-18 05:51:00,56.7,52.6,29.54,SSE,163,2.0,4.0,86,0.00,,OVC003,0.01,VWS V14.01,2013-11-18 10:51:00,
2013-11-18 05:56:00,56.6,52.5,29.53,East,90,3.0,3.0,86,0.01,,OVC003,0.02,VWS V14.01,2013-11-18 10:56:00,
2013-11-18 06:01:00,56.5,52.4,29.53,WSW,251,4.0,4.0,86,0.02,,OVC003,0.03,VWS V14.01,2013-11-18 11:01:00,
2013-11-18 06:06:00,56.6,52.5,29.52,South,181,4.0,4.0,86,0.03,,OVC003,0.04,VWS V14.01,2013-11-18 11:06:00,
2013-11-18 06:11:00,56.7,52.6,29.51,East,86,2.0,6.0,86,0.04,,OVC003,0.05,VWS V14.01,2013-11-18 11:11:00,
2013-11-18 06:16:00,56.8,52.7,29.51,SSW,193,3.0,4.0,86,0.05,,OVC003,0.06,VWS V14.01,2013-11-18 11:16:00,
2013-11-18 06:21:00,56.8,52.7,29.51,SW,220,3.0,6.0,86,0.06,,OVC003,0.07,VWS V14.01,2013-11-18 11:21:00,
2013-11-18 06:26:00,56.8,52.7,29.50,SE,139,1.0,6.0,86,0.06,,OVC003,0.07,VWS V14.01,2013-11-18 11:26:00,
2013-11-18 06:32:00,56.9,52.8,29.49,NE,47,2.0,7.0,86,0.06,,OVC003,0.07,VWS V14.01,2013-11-18 11:32:00,
2013-11-18 06:37:00,57.1,53.0,29.49,SSW,200,3.0,7.0,86,0.07,,-RA,0.08,VWS V14.01,2013-11-18 11:37:00,
2013-11-18 06:42:00,57.4,53.2,29.49,SE,133,5.0,7.0,86,0.09,,-RA,0.10,VWS V14.01,2013-11-18 11:42:00,
2013-11-18 06:47:00,57.5,53.3,29.50,SW,232,5.0,5.0,86,0.11,,-RA,0.12,VWS V14.01,2013-11-18 11:47:00,
2013-11-18 06:52:00,57.9,53.7,29.49,South,173,4.0,5.0,86,0.12,,RA,0.13,VWS V14.01,2013-11-18 11:52:00,
2013-11-18 06:57:00,58.1,53.9,29.49,SSW,197,5.0,6.0,86,0.11,,RA,0.13,VWS V14.01,2013-11-18 11:57:00,
2013-11-18 07:02:00,58.2,54.0,29.49,WSW,252,2.0,2.0,86,0.11,,RA,0.14,VWS V14.01,2013-11-18 12:02:00,
2013-11-18 07:07:00,58.4,54.2,29.49,WSW,243,7.0,7.0,86,0.11,,RA,0.15,VWS V14.01,2013-11-18 12:07:00,
2013-11-18 07:12:00,58.5,54.3,29.49,South,179,2.0,4.0,86,0.10,,RA,0.15,VWS V14.01,2013-11-18 12:12:00,
2013-11-18 07:17:00,58.6,54.4,29.50,SSE,148,2.0,5.0,86,0.09,,RA,0.15,VWS V14.01,2013-11-18 12:17:00,
2013-11-18 07:22:00,58.7,54.5,29.50,WSW,238,3.0,8.0,86,0.09,,RA,0.16,VWS V14.01,2013-11-18 12:22:00,
2013-11-18 07:27:00,58.8,54.6,29.50,WSW,256,2.0,4.0,86,0.09,,RA,0.16,VWS V14.01,2013-11-18 12:27:00,
2013-11-18 07:32:00,58.8,54.6,29.50,West,262,1.0,3.0,86,0.10,,RA,0.17,VWS V14.01,2013-11-18 12:32:00,
2013-11-18 07:37:00,59.0,54.8,29.50,WNW,283,6.0,11.0,86,0.09,,-RA,0.17,VWS V14.01,2013-11-18 12:37:00,
2013-11-18 07:42:00,59.5,55.3,29.48,WSW,243,4.0,4.0,86,0.07,,-RA,0.17,VWS V14.01,2013-11-18 12:42:00,
2013-11-18 07:47:00,60.2,56.0,29.48,WSW,246,2.0,3.0,86,0.05,,-RA,0.17,VWS V14.01,2013-11-18 12:47:00,
2013-11-18 07:52:00,60.7,56.5,29.48,SE,127,3.0,3.0,86,0.04,,-RA,0.17,VWS V14.01,2013-11-18 12:52:00,
2013-11-18 07:57:00,60.9,56.7,29.48,ENE,70,0.0,3.0,86,0.04,,-RA,0.17,VWS V14.01,2013-11-18 12:57:00,
2013-11-18 08:02:00,61.1,56.9,29.48,WSW,253,1.0,3.0,86,0.03,,-RA,0.17,VWS V14.01,2013-11-18 13:02:00,
2013-11-18 08:07:00,61.2,57.0,29.48,NW,312,1.0,3.0,86,0.02,,-RA,0.17,VWS V14.01,2013-11-18 13:07:00,
2013-11-18 08:12:00,61.4,57.2,29.48,WSW,243,1.0,2.0,86,0.02,,-RA,0.17,VWS V14.01,2013-11-18 13:12:00,
2013-11-18 08:18:00,61.3,57.1,29.48,SSW,195,2.0,2.0,86,0.02,,-RA,0.17,VWS V14.01,2013-11-18 13:18:00,
2013-11-18 08:23:00,61.3,56.8,29.48,WNW,293,3.0,6.0,85,0.01,,-RA,0.17,VWS V14.01,2013-11-18 13:23:00,
2013-11-18 08:28:00,61.4,56.5,29.49,SW,236,0.0,2.0,84,0.01,,-RA,0.17,VWS V14.01,2013-11-18 13:28:00,
2013-11-18 08:33:00,61.5,56.6,29.48,WSW,258,3.0,3.0,84,0.00,,-RA,0.17,VWS V14.01,2013-11-18 13:33:00,
2013-11-18 08:38:00,61.6,56.7,29.48,West,269,1.0,3.0,84,0.00,,BKN070,0.17,VWS V14.01,2013-11-18 13:38:00,
2013-11-18 08:43:00,61.6,57.4,29.48,WSW,246,1.0,3.0,86,0.00,,BKN070,0.17,VWS V14.01,2013-11-18 13:43:00,
2013-11-18 08:48:00,61.7,57.8,29.47,West,262,1.0,3.0,87,0.00,,BKN070,0.17,VWS V14.01,2013-11-18 13:48:00,
2013-11-18 08:53:00,61.8,58.2,29.47,WSW,256,3.0,6.0,88,0.00,,BKN070,0.17,VWS V14.01,2013-11-18 13:53:00,
2013-11-18 08:58:00,61.9,58.3,29.47,West,281,1.0,2.0,88,0.00,,BKN070,0.17,VWS V14.01,2013-11-18 13:58:00,
2013-11-18 09:03:00,61.8,58.5,29.48,West,259,2.0,2.0,89,0.00,,BKN070,0.17,VWS V14.01,2013-11-18 14:03:00,
2013-11-18 09:08:00,61.8,58.5,29.49,WSW,255,1.0,2.0,89,0.00,,BKN070,0.17,VWS V14.01,2013-11-18 14:08:00,
2013-11-18 09:13:00,61.8,58.5,29.49,SW,234,0.0,4.0,89,0.00,,BKN070,0.17,VWS V14.01,2013-11-18 14:13:00,
2013-11-18 09:18:00,61.6,58.0,29.49,WSW,246,4.0,5.0,88,0.01,,BKN070,0.18,VWS V14.01,2013-11-18 14:18:00,
2013-11-18 09:23:00,61.1,56.2,29.49,West,265,3.0,7.0,84,0.01,,BKN070,0.18,VWS V14.01,2013-11-18 14:23:00,
2013-11-18 09:28:00,60.6,53.7,29.49,SE,130,3.0,8.0,78,0.01,,BKN070,0.18,VWS V14.01,2013-11-18 14:28:00,
2013-11-18 09:33:00,60.1,52.9,29.50,WNW,294,2.0,6.0,77,0.01,,BKN070,0.18,VWS V14.01,2013-11-18 14:33:00,
2013-11-18 09:38:00,59.8,52.9,29.51,West,266,1.0,4.0,78,0.01,,-RA,0.18,VWS V14.01,2013-11-18 14:38:00,
2013-11-18 09:43:00,59.7,52.8,29.51,WSW,252,2.0,4.0,78,0.01,,-RA,0.18,VWS V14.01,2013-11-18 14:43:00,
2013-11-18 09:48:00,59.7,53.2,29.51,NNE,32,1.0,6.0,79,0.01,,-RA,0.18,VWS V14.01,2013-11-18 14:48:00,
2013-11-18 09:53:00,59.6,53.4,29.50,West,263,4.0,4.0,80,0.01,,BKN100,0.18,VWS V14.01,2013-11-18 14:53:00,
2013-11-18 09:58:00,59.9,53.7,29.51,NW,322,5.0,9.0,80,0.01,,BKN100,0.18,VWS V14.01,2013-11-18 14:58:00,
2013-11-18 10:03:00,60.3,54.1,29.50,WSW,240,4.0,6.0,80,0.01,,BKN100,0.18,VWS V14.01,2013-11-18 15:03:00,
2013-11-18 10:08:00,60.8,53.2,29.51,West,264,3.0,7.0,76,0.01,,BKN100,0.18,VWS V14.01,2013-11-18 15:08:00,
2013-11-18 10:13:00,61.1,52.8,29.51,West,263,4.0,8.0,74,0.01,,BKN100,0.18,VWS V14.01,2013-11-18 15:13:00,
2013-11-18 10:18:00,61.2,52.9,29.50,South,180,3.0,7.0,74,0.00,,BKN100,0.18,VWS V14.01,2013-11-18 15:18:00,
2013-11-18 10:23:00,61.4,52.7,29.50,WNW,300,2.0,3.0,73,0.00,,BKN100,0.18,VWS V14.01,2013-11-18 15:23:00,
2013-11-18 10:28:00,61.4,51.2,29.50,ESE,104,1.0,2.0,69,0.00,,BKN100,0.18,VWS V14.01,2013-11-18 15:28:00,
2013-11-18 10:33:00,61.4,50.4,29.50,NW,307,2.0,5.0,67,0.00,,BKN100,0.18,VWS V14.01,2013-11-18 15:33:00,
2013-11-18 10:38:00,61.5,50.5,29.50,WSW,240,3.0,3.0,67,0.00,,SCT100,0.18,VWS V14.01,2013-11-18 15:38:00,
2013-11-18 10:43:00,61.6,49.7,29.50,West,278,5.0,7.0,65,0.00,,SCT100,0.18,VWS V14.01,2013-11-18 15:43:00,
2013-11-18 10:48:00,61.5,49.2,29.50,West,266,5.0,5.0,64,0.00,,SCT100,0.18,VWS V14.01,2013-11-18 15:48:00,
2013-11-18 10:52:00,61.4,49.1,29.50,WNW,285,3.0,3.0,64,0.00,,SCT100,0.18,VWS V14.01,2013-11-18 15:52:00,
2013-11-18 10:57:00,61.4,50.0,29.49,NW,315,1.0,2.0,66,0.00,,SCT100,0.18,VWS V14.01,2013-11-18 15:57:00,
2013-11-18 11:02:00,61.6,49.7,29.49,WNW,288,1.0,1.0,65,0.00,,SCT100,0.18,VWS V14.01,2013-11-18 16:02:00,
2013-11-18 11:08:00,61.6,49.7,29.49,SW,234,1.0,2.0,65,0.00,,SCT100,0.18,VWS V14.01,2013-11-18 16:08:00,
2013-11-18 11:13:00,61.7,49.0,29.49,West,259,2.0,2.0,63,0.00,,SCT100,0.18,VWS V14.01,2013-11-18 16:13:00,
2013-11-18 11:18:00,61.7,49.4,29.49,ESE,104,1.0,1.0,64,0.00,,SCT100,0.18,VWS V14.01,2013-11-18 16:18:00,
2013-11-18 11:23:00,61.7,49.4,29.49,West,270,1.0,1.0,64,0.00,,SCT100,0.18,VWS V14.01,2013-11-18 16:23:00,
2013-11-18 11:28:00,62.0,48.4,29.49,West,276,2.0,4.0,61,0.00,,SCT100,0.18,VWS V14.01,2013-11-18 16:28:00,
2013-11-18 11:33:00,61.9,47.9,29.49,SSW,204,1.0,5.0,60,0.00,,SCT100,0.18,VWS V14.01,2013-11-18 16:33:00,
2013-11-18 11:38:00,61.7,48.1,29.49,West,266,1.0,5.0,61,0.00,,SCT100,0.18,VWS V14.01,2013-11-18 16:38:00,
2013-11-18 11:43:00,61.5,47.5,29.49,West,263,3.0,3.0,60,0.00,,SCT100,0.18,VWS V14.01,2013-11-18 16:43:00,
2013-11-18 11:48:00,61.3,47.3,29.49,WSW,256,6.0,6.0,60,0.00,,SCT100,0.18,VWS V14.01,2013-11-18 16:48:00,
2013-11-18 11:53:00,61.6,47.2,29.49,North,4,2.0,6.0,59,0.00,,SCT100,0.18,VWS V14.01,2013-11-18 16:53:00,
2013-11-18 11:58:00,61.8,47.3,29.49,ENE,73,2.0,3.0,59,0.00,,SCT100,0.18,VWS V14.01,2013-11-18 16:58:00,
2013-11-18 12:03:00,61.6,47.2,29.49,WSW,238,4.0,6.0,59,0.00,,SCT100,0.18,VWS V14.01,2013-11-18 17:03:00,
2013-11-18 12:08:00,61.5,47.1,29.49,WSW,256,1.0,8.0,59,0.00,,SCT100,0.18,VWS V14.01,2013-11-18 17:08:00,
2013-11-18 12:13:00,61.5,47.5,29.49,West,260,4.0,4.0,60,0.00,,SCT100,0.18,VWS V14.01,2013-11-18 17:13:00,
2013-11-18 12:18:00,61.9,47.4,29.49,West,276,1.0,2.0,59,0.00,,SCT100,0.18,VWS V14.01,2013-11-18 17:18:00,
2013-11-18 12:23:00,62.4,47.9,29.49,East,101,1.0,2.0,59,0.00,,SCT100,0.18,VWS V14.01,2013-11-18 17:23:00,
2013-11-18 12:28:00,63.0,47.5,29.48,WSW,246,1.0,3.0,57,0.00,,SCT100,0.18,VWS V14.01,2013-11-18 17:28:00,
2013-11-18 12:33:00,63.5,48.0,29.48,SW,228,7.0,7.0,57,0.00,,SCT100,0.18,VWS V14.01,2013-11-18 17:33:00,
2013-11-18 12:39:00,63.8,47.8,29.48,WSW,256,2.0,2.0,56,0.00,,BKN045,0.18,VWS V14.01,2013-11-18 17:39:00,
2013-11-18 12:44:00,64.0,47.0,29.48,SW,222,2.0,3.0,54,0.00,,BKN045,0.18,VWS V14.01,2013-11-18 17:44:00,
2013-11-18 12:49:00,63.9,46.5,29.49,WNW,284,2.0,4.0,53,0.00,,BKN045,0.18,VWS V14.01,2013-11-18 17:49:00,
2013-11-18 12:54:00,64.1,46.1,29.49,WNW,297,2.0,5.0,52,0.00,,BKN045,0.18,VWS V14.01,2013-11-18 17:54:00,
2013-11-18 12:59:00,64.4,46.9,29.49,West,269,2.0,3.0,53,0.00,,BKN045,0.18,VWS V14.01,2013-11-18 17:59:00,
2013-11-18 13:04:00,64.7,46.2,29.49,WSW,239,0.0,1.0,51,0.00,,BKN045,0.18,VWS V14.01,2013-11-18 18:04:00,
2013-11-18 13:09:00,64.9,45.8,29.49,SSW,204,2.0,4.0,50,0.00,,BKN045,0.18,VWS V14.01,2013-11-18 18:09:00,
2013-11-18 13:14:00,64.8,45.7,29.49,West,274,2.0,4.0,50,0.00,,BKN045,0.18,VWS V14.01,2013-11-18 18:14:00,
2013-11-18 13:19:00,64.9,45.8,29.49,WSW,250,4.0,9.0,50,0.00,,BKN045,0.18,VWS V14.01,2013-11-18 18:19:00,
2013-11-18 13:24:00,64.9,45.8,29.49,WNW,293,2.0,4.0,50,0.00,,BKN045,0.18,VWS V14.01,2013-11-18 18:24:00,
2013-11-18 13:29:00,64.8,45.2,29.49,WSW,252,2.0,5.0,49,0.00,,BKN045,0.18,VWS V14.01,2013-11-18 18:29:00,
2013-11-18 13:34:00,64.8,45.7,29.49,West,274,2.0,2.0,50,0.00,,BKN045,0.18,VWS V14.01,2013-11-18 18:34:00,
2013-11-18 13:39:00,64.5,44.4,29.49,WNW,288,5.0,8.0,48,0.00,,FEW050,0.18,VWS V14.01,2013-11-18 18:39:00,
2013-11-18 13:44:00,64.3,44.8,29.49,West,273,4.0,6.0,49,0.00,,FEW050,0.18,VWS V14.01,2013-11-18 18:44:00,
2013-11-18 13:49:00,64.1,44.6,29.50,West,259,1.0,4.0,49,0.00,,FEW050,0.18,VWS V14.01,2013-11-18 18:49:00,
2013-11-18 13:54:00,64.4,44.8,29.50,West,262,2.0,4.0,49,0.00,,FEW050,0.18,VWS V14.01,2013-11-18 18:54:00,
2013-11-18 13:59:00,64.9,45.3,29.50,SW,221,2.0,5.0,49,0.00,,FEW050,0.18,VWS V14.01,2013-11-18 18:59:00,
2013-11-18 14:04:00,64.9,45.3,29.50,West,259,2.0,2.0,49,0.00,,FEW050,0.18,VWS V14.01,2013-11-18 19:04:00,
2013-11-18 14:09:00,65.0,45.4,29.50,WNW,288,4.0,4.0,49,0.00,,FEW050,0.18,VWS V14.01,2013-11-18 19:09:00,
2013-11-18 14:14:00,65.4,45.8,29.49,West,278,2.0,2.0,49,0.00,,FEW050,0.18,VWS V14.01,2013-11-18 19:14:00,
2013-11-18 14:19:00,65.7,45.5,29.50,West,276,2.0,2.0,48,0.00,,FEW050,0.18,VWS V14.01,2013-11-18 19:19:00,
2013-11-18 14:25:00,65.6,44.8,29.50,West,276,1.0,4.0,47,0.00,,FEW050,0.18,VWS V14.01,2013-11-18 19:25:00,
2013-11-18 14:30:00,65.5,45.3,29.50,WSW,246,2.0,5.0,48,0.00,,FEW050,0.18,VWS V14.01,2013-11-18 19:30:00,
2013-11-18 14:35:00,65.8,45.6,29.50,West,279,1.0,2.0,48,0.00,,FEW050,0.18,VWS V14.01,2013-11-18 19:35:00,
2013-11-18 14:40:00,65.8,45.6,29.50,West,260,4.0,4.0,48,0.00,,FEW050,0.18,VWS V14.01,2013-11-18 19:40:00,
2013-11-18 14:45:00,65.8,45.6,29.50,West,260,1.0,2.0,48,0.00,,FEW050,0.18,VWS V14.01,2013-11-18 19:45:00,
2013-11-18 14:50:00,65.8,45.6,29.50,West,262,2.0,3.0,48,0.00,,FEW050,0.18,VWS V14.01,2013-11-18 19:50:00,
2013-11-18 14:55:00,65.8,44.5,29.50,West,260,1.0,4.0,46,0.00,,FEW050,0.18,VWS V14.01,2013-11-18 19:55:00,
2013-11-18 15:00:00,65.7,44.9,29.50,ESE,117,2.0,2.0,47,0.00,,FEW050,0.18,VWS V14.01,2013-11-18 20:00:00,
2013-11-18 15:05:00,65.2,43.9,29.50,West,269,4.0,7.0,46,0.00,,FEW050,0.18,VWS V14.01,2013-11-18 20:05:00,
2013-11-18 15:10:00,64.6,43.4,29.50,South,186,1.0,5.0,46,0.00,,FEW050,0.18,VWS V14.01,2013-11-18 20:10:00,
2013-11-18 15:15:00,64.1,43.5,29.50,WNW,290,4.0,4.0,47,0.00,,FEW050,0.18,VWS V14.01,2013-11-18 20:15:00,
2013-11-18 15:20:00,63.9,43.3,29.50,SW,229,2.0,4.0,47,0.00,,FEW050,0.18,VWS V14.01,2013-11-18 20:20:00,
2013-11-18 15:25:00,63.6,43.6,29.50,SW,226,0.0,3.0,48,0.00,,FEW050,0.18,VWS V14.01,2013-11-18 20:25:00,
2013-11-18 15:30:00,63.4,43.9,29.49,SSW,200,0.0,0.0,49,0.00,,FEW050,0.18,VWS V14.01,2013-11-18 20:30:00,
2013-11-18 15:35:00,63.2,43.7,29.49,WSW,245,1.0,1.0,49,0.00,,FEW050,0.18,VWS V14.01,2013-11-18 20:35:00,
2013-11-18 15:40:00,63.0,43.6,29.49,SSW,210,2.0,2.0,49,0.00,,FEW050,0.18,VWS V14.01,2013-11-18 20:40:00,
2013-11-18 15:45:00,62.6,43.7,29.49,SSW,200,1.0,1.0,50,0.00,,FEW050,0.18,VWS V14.01,2013-11-18 20:45:00,
2013-11-18 15:50:00,62.4,43.5,29.49,SSW,195,1.0,1.0,50,0.00,,FEW050,0.18,VWS V14.01,2013-11-18 20:50:00,
2013-11-18 15:55:00,62.2,43.9,29.50,WSW,255,0.0,1.0,51,0.00,,FEW050,0.18,VWS V14.01,2013-11-18 20:55:00,
2013-11-18 16:01:00,61.8,43.5,29.50,WSW,249,1.0,1.0,51,0.00,,FEW050,0.18,VWS V14.01,2013-11-18 21:01:00,
2013-11-18 16:06:00,61.5,43.2,29.50,WSW,253,1.0,2.0,51,0.00,,FEW050,0.18,VWS V14.01,2013-11-18 21:06:00,
2013-11-18 16:11:00,61.3,43.5,29.50,West,267,1.0,1.0,52,0.00,,FEW050,0.18,VWS V14.01,2013-11-18 21:11:00,
2013-11-18 16:16:00,60.9,43.2,29.50,West,264,0.0,0.0,52,0.00,,FEW050,0.18,VWS V14.01,2013-11-18 21:16:00,
2013-11-18 16:21:00,60.5,43.3,29.50,West,264,0.0,0.0,53,0.00,,FEW050,0.18,VWS V14.01,2013-11-18 21:21:00,
2013-11-18 16:26:00,60.1,42.9,29.50,West,264,0.0,0.0,53,0.00,,FEW050,0.18,VWS V14.01,2013-11-18 21:26:00,
2013-11-18 16:31:00,59.7,43.0,29.51,West,264,0.0,0.0,54,0.00,,FEW050,0.18,VWS V14.01,2013-11-18 21:31:00,
2013-11-18 16:36:00,59.4,42.8,29.51,West,264,0.0,0.0,54,0.00,,FEW050,0.18,VWS V14.01,2013-11-18 21:36:00,
2013-11-18 16:41:00,58.9,42.8,29.51,West,264,0.0,0.0,55,0.00,,FEW050,0.18,VWS V14.01,2013-11-18 21:41:00,
2013-11-18 16:46:00,58.4,42.8,29.51,West,264,0.0,0.0,56,0.00,,FEW050,0.18,VWS V14.01,2013-11-18 21:46:00,
2013-11-18 16:51:00,57.9,42.8,29.51,West,264,0.0,0.0,57,0.00,,FEW050,0.18,VWS V14.01,2013-11-18 21:51:00,
2013-11-18 16:57:00,57.3,43.1,29.52,West,262,0.0,0.0,59,0.00,,FEW050,0.18,VWS V14.01,2013-11-18 21:57:00,
2013-11-18 17:02:00,56.5,43.2,29.52,West,262,0.0,0.0,61,0.00,,FEW050,0.18,VWS V14.01,2013-11-18 22:02:00,
2013-11-18 17:07:00,55.9,43.5,29.52,West,263,0.0,0.0,63,0.00,,FEW050,0.18,VWS V14.01,2013-11-18 22:07:00,
2013-11-18 17:12:00,55.4,43.0,29.52,West,263,0.0,0.0,63,0.00,,FEW050,0.18,VWS V14.01,2013-11-18 22:12:00,
2013-11-18 17:17:00,55.0,43.1,29.53,West,263,0.0,0.0,64,0.00,,FEW050,0.18,VWS V14.01,2013-11-18 22:17:00,
2013-11-18 17:22:00,54.5,43.0,29.53,West,263,0.0,0.0,65,0.00,,FEW050,0.18,VWS V14.01,2013-11-18 22:22:00,
2013-11-18 17:27:00,54.3,43.2,29.53,West,263,0.0,0.0,66,0.00,,FEW050,0.18,VWS V14.01,2013-11-18 22:27:00,
2013-11-18 17:32:00,54.2,43.5,29.53,West,263,0.0,0.0,67,0.00,,FEW050,0.18,VWS V14.01,2013-11-18 22:32:00,
2013-11-18 17:37:00,53.9,43.2,29.53,West,263,0.0,0.0,67,0.00,,FEW050,0.18,VWS V14.01,2013-11-18 22:37:00,
2013-11-18 17:42:00,54.0,43.3,29.53,West,264,0.0,0.0,67,0.00,,FEW050,0.18,VWS V14.01,2013-11-18 22:42:00,
2013-11-18 17:47:00,53.9,43.2,29.53,West,264,0.0,0.0,67,0.00,,FEW050,0.18,VWS V14.01,2013-11-18 22:47:00,
2013-11-18 17:52:00,53.6,43.3,29.53,West,264,0.0,0.0,68,0.00,,FEW050,0.18,VWS V14.01,2013-11-18 22:52:00,
2013-11-18 17:57:00,53.1,43.2,29.53,West,264,0.0,0.0,69,0.00,,FEW050,0.18,VWS V14.01,2013-11-18 22:57:00,
2013-11-18 18:02:00,52.8,43.3,29.53,West,264,0.0,0.0,70,0.00,,FEW050,0.18,VWS V14.01,2013-11-18 23:02:00,
2013-11-18 18:07:00,52.4,43.3,29.53,West,262,0.0,0.0,71,0.00,,FEW050,0.18,VWS V14.01,2013-11-18 23:07:00,
2013-11-18 18:12:00,52.0,43.3,29.53,West,262,0.0,0.0,72,0.00,,FEW050,0.18,VWS V14.01,2013-11-18 23:12:00,
2013-11-18 18:17:00,52.0,43.6,29.53,West,262,0.0,0.0,73,0.00,,FEW050,0.18,VWS V14.01,2013-11-18 23:17:00,
2013-11-18 18:22:00,51.9,43.5,29.53,West,262,0.0,0.0,73,0.00,,FEW050,0.18,VWS V14.01,2013-11-18 23:22:00,
2013-11-18 18:27:00,52.0,43.6,29.53,West,262,0.0,0.0,73,0.00,,FEW050,0.18,VWS V14.01,2013-11-18 23:27:00,
2013-11-18 18:32:00,52.0,43.6,29.53,West,262,0.0,0.0,73,0.00,,FEW050,0.18,VWS V14.01,2013-11-18 23:32:00,
2013-11-18 18:37:00,52.1,43.7,29.53,West,262,0.0,0.0,73,0.00,,BKN070,0.18,VWS V14.01,2013-11-18 23:37:00,
2013-11-18 18:42:00,52.4,43.7,29.53,West,262,0.0,0.0,72,0.00,,BKN070,0.18,VWS V14.01,2013-11-18 23:42:00,
2013-11-18 18:48:00,52.8,43.3,29.53,NNW,330,1.0,1.0,70,0.00,,BKN070,0.18,VWS V14.01,2013-11-18 23:48:00,
2013-11-18 18:53:00,53.2,42.9,29.54,West,280,1.0,2.0,68,0.00,,BKN070,0.18,VWS V14.01,2013-11-18 23:53:00,
2013-11-18 18:58:00,53.8,43.1,29.53,West,277,2.0,2.0,67,0.00,,BKN070,0.18,VWS V14.01,2013-11-18 23:58:00,
2013-11-18 19:03:00,54.0,43.3,29.53,West,277,0.0,0.0,67,0.00,,BKN070,0.18,VWS V14.01,2013-11-19 00:03:00,
2013-11-18 19:08:00,54.1,43.0,29.53,West,260,1.0,2.0,66,0.00,,BKN080,0.18,VWS V14.01,2013-11-19 00:08:00,
2013-11-18 19:13:00,54.2,42.7,29.53,WSW,257,0.0,0.0,65,0.00,,BKN080,0.18,VWS V14.01,2013-11-19 00:13:00,
2013-11-18 19:18:00,54.2,42.7,29.53,North,4,1.0,1.0,65,0.00,,BKN080,0.18,VWS V14.01,2013-11-19 00:18:00,
2013-11-18 19:23:00,54.6,42.7,29.54,WNW,286,0.0,1.0,64,0.00,,BKN080,0.18,VWS V14.01,2013-11-19 00:23:00,
2013-11-18 19:28:00,54.7,42.8,29.54,West,264,2.0,2.0,64,0.00,,BKN080,0.18,VWS V14.01,2013-11-19 00:28:00,
2013-11-18 19:33:00,54.6,42.3,29.54,WSW,258,1.0,1.0,63,0.00,,BKN080,0.18,VWS V14.01,2013-11-19 00:33:00,
2013-11-18 19:38:00,54.6,42.3,29.54,West,264,0.0,1.0,63,0.00,,BKN080,0.18,VWS V14.01,2013-11-19 00:38:00,
2013-11-18 19:43:00,54.4,42.1,29.54,WNW,300,1.0,2.0,63,0.00,,BKN080,0.18,VWS V14.01,2013-11-19 00:43:00,
2013-11-18 19:48:00,54.2,42.3,29.54,West,273,0.0,0.0,64,0.00,,BKN080,0.18,VWS V14.01,2013-11-19 00:48:00,
2013-11-18 19:53:00,53.9,42.0,29.54,WNW,298,1.0,1.0,64,0.00,,BKN080,0.18,VWS V14.01,2013-11-19 00:53:00,
2013-11-18 19:58:00,53.8,41.5,29.54,WSW,253,1.0,2.0,63,0.00,,BKN080,0.18,VWS V14.01,2013-11-19 00:58:00,
2013-11-18 20:03:00,53.7,41.4,29.54,West,262,0.0,1.0,63,0.00,,BKN080,0.18,VWS V14.01,2013-11-19 01:03:00,
2013-11-18 20:08:00,53.4,41.5,29.54,West,259,0.0,1.0,64,0.00,,BKN080,0.18,VWS V14.01,2013-11-19 01:08:00,
2013-11-18 20:13:00,53.1,41.3,29.54,WNW,287,2.0,4.0,64,0.00,,BKN080,0.18,VWS V14.01,2013-11-19 01:13:00,
2013-11-18 20:18:00,53.1,41.3,29.54,SSW,194,0.0,2.0,64,0.00,,BKN080,0.18,VWS V14.01,2013-11-19 01:18:00,
2013-11-18 20:23:00,52.8,41.0,29.54,NW,312,1.0,3.0,64,0.00,,BKN080,0.18,VWS V14.01,2013-11-19 01:23:00,
2013-11-18 20:28:00,52.8,41.4,29.54,SW,225,1.0,1.0,65,0.00,,BKN080,0.18,VWS V14.01,2013-11-19 01:28:00,
2013-11-18 20:33:00,52.6,41.2,29.54,SW,224,0.0,0.0,65,0.00,,BKN080,0.18,VWS V14.01,2013-11-19 01:33:00,
2013-11-18 20:38:00,52.3,41.3,29.54,WSW,252,1.0,1.0,66,0.00,,BKN075,0.18,VWS V14.01,2013-11-19 01:38:00,
2013-11-18 20:43:00,52.3,41.3,29.54,West,273,0.0,1.0,66,0.00,,BKN075,0.18,VWS V14.01,2013-11-19 01:43:00,
2013-11-18 20:45:00,52.2,41.2,29.54,West,262,1.0,1.0,66,0.00,,BKN075,0.18,VWS V14.01,2013-11-19 01:45:00,
2013-11-18 20:50:00,52.2,41.2,29.54,West,276,1.0,1.0,66,0.00,,BKN075,0.18,VWS V14.01,2013-11-19 01:50:00,
2013-11-18 20:55:00,52.2,41.2,29.54,West,267,0.0,1.0,66,0.00,,BKN075,0.18,VWS V14.01,2013-11-19 01:55:00,
2013-11-18 21:00:00,52.0,41.4,29.55,WSW,246,1.0,1.0,67,0.00,,BKN075,0.18,VWS V14.01,2013-11-19 02:00:00,
2013-11-18 21:05:00,51.8,41.2,29.55,NW,307,0.0,0.0,67,0.00,,BKN075,0.18,VWS V14.01,2013-11-19 02:05:00,
2013-11-18 21:10:00,51.5,40.9,29.55,WSW,253,0.0,1.0,67,0.00,,BKN075,0.18,VWS V14.01,2013-11-19 02:10:00,
2013-11-18 21:15:00,51.2,41.0,29.55,NW,322,1.0,1.0,68,0.00,,BKN075,0.18,VWS V14.01,2013-11-19 02:15:00,
2013-11-18 21:20:00,51.3,41.1,29.56,NW,312,1.0,4.0,68,0.00,,BKN075,0.18,VWS V14.01,2013-11-19 02:20:00,
2013-11-18 21:25:00,51.6,41.0,29.56,WNW,284,1.0,2.0,67,0.00,,BKN075,0.18,VWS V14.01,2013-11-19 02:25:00,
2013-11-18 21:30:00,51.7,41.1,29.56,WNW,297,2.0,2.0,67,0.00,,BKN075,0.18,VWS V14.01,2013-11-19 02:30:00,
2013-11-18 21:35:00,51.8,41.2,29.56,West,269,1.0,4.0,67,0.00,,SCT070,0.18,VWS V14.01,2013-11-19 02:35:00,
2013-11-18 21:40:00,51.7,41.1,29.57,WNW,294,4.0,5.0,67,0.00,,SCT070,0.18,VWS V14.01,2013-11-19 02:40:00,
2013-11-18 21:45:00,51.8,40.8,29.57,West,267,1.0,3.0,66,0.00,,SCT070,0.18,VWS V14.01,2013-11-19 02:45:00,
2013-11-18 21:50:00,51.9,40.5,29.57,WSW,250,7.0,9.0,65,0.00,,SCT070,0.18,VWS V14.01,2013-11-19 02:50:00,
2013-11-18 21:55:00,52.0,40.2,29.57,North,359,1.0,6.0,64,0.00,,SCT070,0.18,VWS V14.01,2013-11-19 02:55:00,
2013-11-18 22:00:00,51.8,39.6,29.57,WSW,249,3.0,3.0,63,0.00,,SCT070,0.18,VWS V14.01,2013-11-19 03:00:00,
2013-11-18 22:05:00,51.7,39.5,29.57,West,272,4.0,4.0,63,0.00,,SCT070,0.18,VWS V14.01,2013-11-19 03:05:00,
2013-11-18 22:10:00,51.6,39.4,29.58,North,4,3.0,3.0,63,0.00,,SCT070,0.18,VWS V14.01,2013-11-19 03:10:00,
2013-11-18 22:15:00,51.3,39.2,29.58,West,264,4.0,5.0,63,0.00,,SCT070,0.18,VWS V14.01,2013-11-19 03:15:00,
2013-11-18 22:21:00,51.1,39.0,29.58,NNW,339,3.0,5.0,63,0.00,,SCT070,0.18,VWS V14.01,2013-11-19 03:21:00,
2013-11-18 22:26:00,50.8,39.1,29.58,NW,305,1.0,1.0,64,0.00,,SCT070,0.18,VWS V14.01,2013-11-19 03:26:00,
2013-11-18 22:31:00,50.6,38.9,29.58,South,174,1.0,1.0,64,0.00,,SCT070,0.18,VWS V14.01,2013-11-19 03:31:00,
2013-11-18 22:36:00,50.3,38.6,29.58,West,276,1.0,2.0,64,0.00,,CLR,0.18,VWS V14.01,2013-11-19 03:36:00,
2013-11-18 22:41:00,49.9,38.2,29.58,West,281,1.0,2.0,64,0.00,,CLR,0.18,VWS V14.01,2013-11-19 03:41:00,
2013-11-18 22:46:00,49.7,38.4,29.58,WSW,238,0.0,1.0,65,0.00,,CLR,0.18,VWS V14.01,2013-11-19 03:46:00,
2013-11-18 22:51:00,49.3,38.4,29.58,WSW,238,0.0,1.0,66,0.00,,CLR,0.18,VWS V14.01,2013-11-19 03:51:00,
2013-11-18 22:56:00,48.9,38.4,29.59,WSW,240,2.0,2.0,67,0.00,,CLR,0.18,VWS V14.01,2013-11-19 03:56:00,
2013-11-18 23:01:00,48.7,38.2,29.59,WSW,256,1.0,2.0,67,0.00,,CLR,0.18,VWS V14.01,2013-11-19 04:01:00,
2013-11-18 23:06:00,48.8,38.0,29.59,NNW,336,1.0,3.0,66,0.00,,CLR,0.18,VWS V14.01,2013-11-19 04:06:00,
2013-11-18 23:09:00,48.8,37.6,29.59,WNW,289,5.0,5.0,65,0.00,,CLR,0.18,VWS V14.01,2013-11-19 04:09:00,
2013-11-18 23:14:00,48.9,37.7,29.60,West,276,2.0,3.0,65,0.00,,CLR,0.18,VWS V14.01,2013-11-19 04:14:00,
2013-11-18 23:19:00,48.8,37.6,29.60,WNW,291,2.0,2.0,65,0.00,,CLR,0.18,VWS V14.01,2013-11-19 04:19:00,
2013-11-18 23:24:00,48.6,37.0,29.60,SSW,210,2.0,2.0,64,0.00,,CLR,0.18,VWS V14.01,2013-11-19 04:24:00,
2013-11-18 23:29:00,48.5,36.9,29.60,SW,236,6.0,6.0,64,0.00,,CLR,0.18,VWS V14.01,2013-11-19 04:29:00,
2013-11-18 23:34:00,48.7,36.3,29.60,WSW,246,0.0,2.0,62,0.00,,CLR,0.18,VWS V14.01,2013-11-19 04:34:00,
2013-11-18 23:39:00,48.6,36.2,29.60,West,278,1.0,2.0,62,0.00,,CLR,0.18,VWS V14.01,2013-11-19 04:39:00,
2013-11-18 23:44:00,48.4,36.0,29.60,West,273,3.0,3.0,62,0.00,,CLR,0.18,VWS V14.01,2013-11-19 04:44:00,
2013-11-18 23:49:00,48.3,35.5,29.60,WSW,253,4.0,4.0,61,0.00,,CLR,0.18,VWS V14.01,2013-11-19 04:49:00,
2013-11-18 23:54:00,48.3,35.1,29.60,WSW,240,5.0,5.0,60,0.00,,CLR,0.18,VWS V14.01,2013-11-19 04:54:00,
2013-11-18 23:59:00,48.2,35.4,29.60,SSW,210,1.0,2.0,61,0.00,,CLR,0.00,VWS V14.01,2013-11-19 04:59:00,